sensor_id;sensor_type;location;lat;lon;timestamp;P1;durP1;ratioP1;P2;durP2;ratioP2
7903;SDS011;3997;48.416;8.512;2023-07-20T00:01:28;4.32;;;3.95;;
7903;SDS011;3997;48.416;8.512;2023-07-20T00:03:54;4.55;;;4.25;;
7903;SDS011;3997;48.416;8.512;2023-07-20T00:06:21;4.82;;;4.32;;
7903;SDS011;3997;48.416;8.512;2023-07-20T00:08:50;4.20;;;3.90;;
7903;SDS011;3997;48.416;8.512;2023-07-20T00:11:16;4.72;;;4.22;;
7903;SDS011;3997;48.416;8.512;2023-07-20T00:13:43;5.10;;;4.72;;
7903;SDS011;3997;48.416;8.512;2023-07-20T00:16:10;4.47;;;4.10;;
7903;SDS011;3997;48.416;8.512;2023-07-20T00:18:36;4.53;;;4.22;;
7903;SDS011;3997;48.416;8.512;2023-07-20T00:21:02;4.15;;;3.85;;
7903;SDS011;3997;48.416;8.512;2023-07-20T00:23:29;5.43;;;4.10;;
7903;SDS011;3997;48.416;8.512;2023-07-20T00:25:57;5.63;;;4.00;;
7903;SDS011;3997;48.416;8.512;2023-07-20T00:28:23;4.90;;;4.55;;
7903;SDS011;3997;48.416;8.512;2023-07-20T00:30:50;4.30;;;3.95;;
7903;SDS011;3997;48.416;8.512;2023-07-20T00:33:17;6.20;;;3.88;;
7903;SDS011;3997;48.416;8.512;2023-07-20T00:35:43;4.30;;;3.90;;
7903;SDS011;3997;48.416;8.512;2023-07-20T00:38:10;4.63;;;4.32;;
7903;SDS011;3997;48.416;8.512;2023-07-20T00:40:36;4.63;;;4.25;;
7903;SDS011;3997;48.416;8.512;2023-07-20T00:43:04;4.65;;;4.28;;
7903;SDS011;3997;48.416;8.512;2023-07-20T00:45:31;4.80;;;3.90;;
7903;SDS011;3997;48.416;8.512;2023-07-20T00:47:58;4.80;;;4.50;;
7903;SDS011;3997;48.416;8.512;2023-07-20T00:50:25;4.32;;;3.92;;
7903;SDS011;3997;48.416;8.512;2023-07-20T00:52:52;4.72;;;4.10;;
7903;SDS011;3997;48.416;8.512;2023-07-20T00:55:19;4.10;;;3.90;;
7903;SDS011;3997;48.416;8.512;2023-07-20T00:57:45;5.22;;;4.53;;
7903;SDS011;3997;48.416;8.512;2023-07-20T01:00:13;4.25;;;3.95;;
7903;SDS011;3997;48.416;8.512;2023-07-20T01:02:40;4.50;;;4.13;;
7903;SDS011;3997;48.416;8.512;2023-07-20T01:05:07;4.38;;;4.07;;
7903;SDS011;3997;48.416;8.512;2023-07-20T01:07:34;4.30;;;4.00;;
7903;SDS011;3997;48.416;8.512;2023-07-20T01:10:02;4.72;;;4.40;;
7903;SDS011;3997;48.416;8.512;2023-07-20T01:12:33;5.28;;;4.38;;
7903;SDS011;3997;48.416;8.512;2023-07-20T01:15:02;4.50;;;4.10;;
7903;SDS011;3997;48.416;8.512;2023-07-20T01:17:30;4.88;;;4.47;;
7903;SDS011;3997;48.416;8.512;2023-07-20T01:19:56;4.60;;;4.30;;
7903;SDS011;3997;48.416;8.512;2023-07-20T01:22:30;4.97;;;4.28;;
7903;SDS011;3997;48.416;8.512;2023-07-20T01:25:07;4.32;;;4.03;;
7903;SDS011;3997;48.416;8.512;2023-07-20T01:30:34;4.60;;;4.20;;
7903;SDS011;3997;48.416;8.512;2023-07-20T01:33:07;4.55;;;4.15;;
7903;SDS011;3997;48.416;8.512;2023-07-20T01:35:34;4.93;;;4.10;;
7903;SDS011;3997;48.416;8.512;2023-07-20T01:38:01;4.70;;;4.20;;
7903;SDS011;3997;48.416;8.512;2023-07-20T01:40:28;4.18;;;3.97;;
7903;SDS011;3997;48.416;8.512;2023-07-20T01:42:55;4.50;;;4.13;;
7903;SDS011;3997;48.416;8.512;2023-07-20T01:45:21;4.50;;;3.95;;
7903;SDS011;3997;48.416;8.512;2023-07-20T01:47:48;4.45;;;4.15;;
7903;SDS011;3997;48.416;8.512;2023-07-20T01:50:16;4.65;;;4.25;;
7903;SDS011;3997;48.416;8.512;2023-07-20T01:52:42;4.50;;;4.10;;
7903;SDS011;3997;48.416;8.512;2023-07-20T01:55:09;4.70;;;4.22;;
7903;SDS011;3997;48.416;8.512;2023-07-20T01:57:35;4.30;;;3.63;;
7903;SDS011;3997;48.416;8.512;2023-07-20T02:00:02;4.15;;;3.92;;
7903;SDS011;3997;48.416;8.512;2023-07-20T02:02:28;4.35;;;3.65;;
7903;SDS011;3997;48.416;8.512;2023-07-20T02:04:55;4.80;;;4.40;;
7903;SDS011;3997;48.416;8.512;2023-07-20T02:07:23;4.20;;;3.90;;
7903;SDS011;3997;48.416;8.512;2023-07-20T02:09:49;4.47;;;4.07;;
7903;SDS011;3997;48.416;8.512;2023-07-20T02:12:15;4.50;;;3.60;;
7903;SDS011;3997;48.416;8.512;2023-07-20T02:14:42;4.65;;;4.20;;
7903;SDS011;3997;48.416;8.512;2023-07-20T02:17:08;4.00;;;3.80;;
7903;SDS011;3997;48.416;8.512;2023-07-20T02:19:36;4.15;;;3.85;;
7903;SDS011;3997;48.416;8.512;2023-07-20T02:22:03;5.00;;;3.78;;
7903;SDS011;3997;48.416;8.512;2023-07-20T02:24:31;4.88;;;3.78;;
7903;SDS011;3997;48.416;8.512;2023-07-20T02:26:57;4.57;;;4.18;;
7903;SDS011;3997;48.416;8.512;2023-07-20T02:29:24;4.30;;;3.92;;
7903;SDS011;3997;48.416;8.512;2023-07-20T02:31:50;4.47;;;4.10;;
7903;SDS011;3997;48.416;8.512;2023-07-20T02:34:16;4.15;;;3.85;;
7903;SDS011;3997;48.416;8.512;2023-07-20T02:36:43;4.22;;;4.00;;
7903;SDS011;3997;48.416;8.512;2023-07-20T02:39:11;4.22;;;3.88;;
7903;SDS011;3997;48.416;8.512;2023-07-20T02:41:39;3.85;;;3.65;;
7903;SDS011;3997;48.416;8.512;2023-07-20T02:44:05;4.95;;;3.95;;
7903;SDS011;3997;48.416;8.512;2023-07-20T02:46:32;3.92;;;3.70;;
7903;SDS011;3997;48.416;8.512;2023-07-20T02:49:00;4.22;;;3.90;;
7903;SDS011;3997;48.416;8.512;2023-07-20T02:51:26;4.85;;;4.43;;
7903;SDS011;3997;48.416;8.512;2023-07-20T02:53:53;4.45;;;4.05;;
7903;SDS011;3997;48.416;8.512;2023-07-20T02:56:19;6.43;;;4.30;;
7903;SDS011;3997;48.416;8.512;2023-07-20T02:58:47;4.75;;;4.10;;
7903;SDS011;3997;48.416;8.512;2023-07-20T03:01:13;4.50;;;4.20;;
7903;SDS011;3997;48.416;8.512;2023-07-20T03:03:40;4.43;;;4.03;;
7903;SDS011;3997;48.416;8.512;2023-07-20T03:06:11;5.07;;;4.00;;
7903;SDS011;3997;48.416;8.512;2023-07-20T03:08:38;4.30;;;4.00;;
7903;SDS011;3997;48.416;8.512;2023-07-20T03:11:04;4.53;;;4.10;;
7903;SDS011;3997;48.416;8.512;2023-07-20T03:13:31;4.32;;;3.92;;
7903;SDS011;3997;48.416;8.512;2023-07-20T03:15:58;4.82;;;4.40;;
7903;SDS011;3997;48.416;8.512;2023-07-20T03:18:25;4.05;;;3.70;;
7903;SDS011;3997;48.416;8.512;2023-07-20T03:20:51;5.03;;;4.63;;
7903;SDS011;3997;48.416;8.512;2023-07-20T03:23:18;4.22;;;4.03;;
7903;SDS011;3997;48.416;8.512;2023-07-20T03:25:44;4.60;;;4.30;;
7903;SDS011;3997;48.416;8.512;2023-07-20T03:28:11;4.90;;;4.50;;
7903;SDS011;3997;48.416;8.512;2023-07-20T03:30:37;6.00;;;4.32;;
7903;SDS011;3997;48.416;8.512;2023-07-20T03:33:05;4.35;;;3.95;;
7903;SDS011;3997;48.416;8.512;2023-07-20T03:35:32;4.53;;;4.22;;
7903;SDS011;3997;48.416;8.512;2023-07-20T03:37:58;4.72;;;4.43;;
7903;SDS011;3997;48.416;8.512;2023-07-20T03:40:24;5.20;;;4.65;;
7903;SDS011;3997;48.416;8.512;2023-07-20T03:42:51;4.60;;;4.28;;
7903;SDS011;3997;48.416;8.512;2023-07-20T03:45:17;4.70;;;4.13;;
7903;SDS011;3997;48.416;8.512;2023-07-20T03:47:44;4.13;;;3.85;;
7903;SDS011;3997;48.416;8.512;2023-07-20T03:50:13;4.25;;;3.95;;
7903;SDS011;3997;48.416;8.512;2023-07-20T03:52:40;4.80;;;2.80;;
7903;SDS011;3997;48.416;8.512;2023-07-20T03:55:07;3.03;;;2.60;;
7903;SDS011;3997;48.416;8.512;2023-07-20T03:57:33;4.88;;;4.47;;
7903;SDS011;3997;48.416;8.512;2023-07-20T03:59:59;4.63;;;4.15;;
7903;SDS011;3997;48.416;8.512;2023-07-20T04:02:26;4.45;;;4.13;;
7903;SDS011;3997;48.416;8.512;2023-07-20T04:04:52;4.63;;;4.32;;
7903;SDS011;3997;48.416;8.512;2023-07-20T04:07:20;5.10;;;4.60;;
7903;SDS011;3997;48.416;8.512;2023-07-20T04:09:47;6.97;;;5.03;;
7903;SDS011;3997;48.416;8.512;2023-07-20T04:12:13;5.55;;;4.55;;
7903;SDS011;3997;48.416;8.512;2023-07-20T04:14:39;4.97;;;4.57;;
7903;SDS011;3997;48.416;8.512;2023-07-20T04:17:06;5.22;;;4.82;;
7903;SDS011;3997;48.416;8.512;2023-07-20T04:19:32;6.45;;;4.45;;
7903;SDS011;3997;48.416;8.512;2023-07-20T04:21:59;5.60;;;4.80;;
7903;SDS011;3997;48.416;8.512;2023-07-20T04:24:27;5.57;;;5.15;;
7903;SDS011;3997;48.416;8.512;2023-07-20T04:26:53;5.40;;;5.00;;
7903;SDS011;3997;48.416;8.512;2023-07-20T04:29:20;5.93;;;4.65;;
7903;SDS011;3997;48.416;8.512;2023-07-20T04:31:46;6.38;;;4.70;;
7903;SDS011;3997;48.416;8.512;2023-07-20T04:34:13;5.00;;;4.60;;
7903;SDS011;3997;48.416;8.512;2023-07-20T04:36:39;5.15;;;4.85;;
7903;SDS011;3997;48.416;8.512;2023-07-20T04:39:06;5.43;;;4.93;;
7903;SDS011;3997;48.416;8.512;2023-07-20T04:41:34;5.32;;;4.82;;
7903;SDS011;3997;48.416;8.512;2023-07-20T04:44:01;5.15;;;4.70;;
7903;SDS011;3997;48.416;8.512;2023-07-20T04:46:27;5.13;;;4.82;;
7903;SDS011;3997;48.416;8.512;2023-07-20T04:48:54;5.35;;;4.65;;
7903;SDS011;3997;48.416;8.512;2023-07-20T04:51:20;4.97;;;4.57;;
7903;SDS011;3997;48.416;8.512;2023-07-20T04:53:47;4.63;;;4.25;;
7903;SDS011;3997;48.416;8.512;2023-07-20T04:56:14;4.82;;;4.55;;
7903;SDS011;3997;48.416;8.512;2023-07-20T04:58:41;5.35;;;4.95;;
7903;SDS011;3997;48.416;8.512;2023-07-20T05:01:08;5.43;;;5.03;;
7903;SDS011;3997;48.416;8.512;2023-07-20T05:03:34;5.20;;;4.63;;
7903;SDS011;3997;48.416;8.512;2023-07-20T05:06:01;5.40;;;4.90;;
7903;SDS011;3997;48.416;8.512;2023-07-20T05:08:27;4.68;;;4.38;;
7903;SDS011;3997;48.416;8.512;2023-07-20T05:10:54;5.80;;;5.40;;
7903;SDS011;3997;48.416;8.512;2023-07-20T05:13:20;4.93;;;4.57;;
7903;SDS011;3997;48.416;8.512;2023-07-20T05:15:50;4.95;;;4.65;;
7903;SDS011;3997;48.416;8.512;2023-07-20T05:18:17;7.07;;;5.18;;
7903;SDS011;3997;48.416;8.512;2023-07-20T05:20:45;5.03;;;4.63;;
7903;SDS011;3997;48.416;8.512;2023-07-20T05:23:13;4.93;;;4.63;;
7903;SDS011;3997;48.416;8.512;2023-07-20T05:25:39;5.18;;;4.75;;
7903;SDS011;3997;48.416;8.512;2023-07-20T05:28:06;7.70;;;4.97;;
7903;SDS011;3997;48.416;8.512;2023-07-20T05:30:32;4.93;;;4.53;;
7903;SDS011;3997;48.416;8.512;2023-07-20T05:33:00;5.38;;;4.88;;
7903;SDS011;3997;48.416;8.512;2023-07-20T05:35:27;5.00;;;4.70;;
7903;SDS011;3997;48.416;8.512;2023-07-20T05:37:55;5.15;;;4.72;;
7903;SDS011;3997;48.416;8.512;2023-07-20T05:40:22;5.55;;;5.07;;
7903;SDS011;3997;48.416;8.512;2023-07-20T05:42:48;5.05;;;4.60;;
7903;SDS011;3997;48.416;8.512;2023-07-20T05:45:17;5.28;;;4.88;;
7903;SDS011;3997;48.416;8.512;2023-07-20T05:47:43;5.30;;;4.90;;
7903;SDS011;3997;48.416;8.512;2023-07-20T05:50:12;5.03;;;4.72;;
7903;SDS011;3997;48.416;8.512;2023-07-20T05:52:39;5.28;;;4.90;;
7903;SDS011;3997;48.416;8.512;2023-07-20T05:55:06;5.70;;;5.15;;
7903;SDS011;3997;48.416;8.512;2023-07-20T05:57:33;5.20;;;4.90;;
7903;SDS011;3997;48.416;8.512;2023-07-20T06:00:00;5.70;;;5.03;;
7903;SDS011;3997;48.416;8.512;2023-07-20T06:02:27;5.13;;;4.63;;
7903;SDS011;3997;48.416;8.512;2023-07-20T06:04:54;5.90;;;5.40;;
7903;SDS011;3997;48.416;8.512;2023-07-20T06:07:22;5.68;;;5.28;;
7903;SDS011;3997;48.416;8.512;2023-07-20T06:09:48;5.60;;;5.20;;
7903;SDS011;3997;48.416;8.512;2023-07-20T06:12:14;5.90;;;5.30;;
7903;SDS011;3997;48.416;8.512;2023-07-20T06:14:41;5.10;;;4.60;;
7903;SDS011;3997;48.416;8.512;2023-07-20T06:17:07;5.32;;;4.88;;
7903;SDS011;3997;48.416;8.512;2023-07-20T06:19:34;6.50;;;5.18;;
7903;SDS011;3997;48.416;8.512;2023-07-20T06:22:01;4.97;;;4.47;;
7903;SDS011;3997;48.416;8.512;2023-07-20T06:24:28;5.15;;;4.63;;
7903;SDS011;3997;48.416;8.512;2023-07-20T06:26:55;4.97;;;4.57;;
7903;SDS011;3997;48.416;8.512;2023-07-20T06:29:21;5.10;;;4.75;;
7903;SDS011;3997;48.416;8.512;2023-07-20T06:31:48;5.10;;;4.60;;
7903;SDS011;3997;48.416;8.512;2023-07-20T06:34:14;4.85;;;4.55;;
7903;SDS011;3997;48.416;8.512;2023-07-20T06:36:41;5.50;;;5.07;;
7903;SDS011;3997;48.416;8.512;2023-07-20T06:39:07;4.72;;;4.45;;
7903;SDS011;3997;48.416;8.512;2023-07-20T06:41:35;5.10;;;4.78;;
7903;SDS011;3997;48.416;8.512;2023-07-20T06:44:01;5.50;;;5.00;;
7903;SDS011;3997;48.416;8.512;2023-07-20T06:46:28;4.85;;;4.45;;
7903;SDS011;3997;48.416;8.512;2023-07-20T06:48:54;5.20;;;4.80;;
7903;SDS011;3997;48.416;8.512;2023-07-20T06:51:22;5.07;;;4.68;;
7903;SDS011;3997;48.416;8.512;2023-07-20T06:53:48;5.45;;;5.05;;
7903;SDS011;3997;48.416;8.512;2023-07-20T06:56:15;4.93;;;4.63;;
7903;SDS011;3997;48.416;8.512;2023-07-20T06:58:42;5.63;;;5.22;;
7903;SDS011;3997;48.416;8.512;2023-07-20T07:01:09;5.13;;;4.78;;
7903;SDS011;3997;48.416;8.512;2023-07-20T07:03:35;5.30;;;4.82;;
7903;SDS011;3997;48.416;8.512;2023-07-20T07:06:03;4.85;;;4.45;;
7903;SDS011;3997;48.416;8.512;2023-07-20T07:08:29;5.43;;;4.70;;
7903;SDS011;3997;48.416;8.512;2023-07-20T07:10:56;5.28;;;4.88;;
7903;SDS011;3997;48.416;8.512;2023-07-20T07:13:22;4.90;;;4.57;;
7903;SDS011;3997;48.416;8.512;2023-07-20T07:15:51;4.72;;;4.43;;
7903;SDS011;3997;48.416;8.512;2023-07-20T07:18:17;5.53;;;5.05;;
7903;SDS011;3997;48.416;8.512;2023-07-20T07:20:50;5.18;;;4.68;;
7903;SDS011;3997;48.416;8.512;2023-07-20T07:23:16;4.90;;;4.60;;
7903;SDS011;3997;48.416;8.512;2023-07-20T07:25:43;5.03;;;4.63;;
7903;SDS011;3997;48.416;8.512;2023-07-20T07:28:11;4.90;;;4.60;;
7903;SDS011;3997;48.416;8.512;2023-07-20T07:30:37;5.80;;;5.40;;
7903;SDS011;3997;48.416;8.512;2023-07-20T07:33:05;5.38;;;4.53;;
7903;SDS011;3997;48.416;8.512;2023-07-20T07:35:32;5.40;;;5.00;;
7903;SDS011;3997;48.416;8.512;2023-07-20T07:37:58;5.35;;;5.03;;
7903;SDS011;3997;48.416;8.512;2023-07-20T07:40:25;4.90;;;4.70;;
7903;SDS011;3997;48.416;8.512;2023-07-20T07:42:51;5.45;;;5.05;;
7903;SDS011;3997;48.416;8.512;2023-07-20T07:45:18;5.32;;;4.93;;
7903;SDS011;3997;48.416;8.512;2023-07-20T07:47:44;4.97;;;4.57;;
7903;SDS011;3997;48.416;8.512;2023-07-20T07:50:12;5.40;;;5.00;;
7903;SDS011;3997;48.416;8.512;2023-07-20T07:52:39;5.03;;;4.75;;
7903;SDS011;3997;48.416;8.512;2023-07-20T07:55:06;5.18;;;4.72;;
7903;SDS011;3997;48.416;8.512;2023-07-20T07:57:32;5.10;;;4.80;;
7903;SDS011;3997;48.416;8.512;2023-07-20T07:59:59;4.88;;;4.68;;
7903;SDS011;3997;48.416;8.512;2023-07-20T08:02:25;4.80;;;4.38;;
7903;SDS011;3997;48.416;8.512;2023-07-20T08:04:52;4.93;;;4.50;;
7903;SDS011;3997;48.416;8.512;2023-07-20T08:07:20;5.07;;;4.70;;
7903;SDS011;3997;48.416;8.512;2023-07-20T08:09:46;4.50;;;4.20;;
7903;SDS011;3997;48.416;8.512;2023-07-20T08:12:13;5.15;;;4.72;;
7903;SDS011;3997;48.416;8.512;2023-07-20T08:14:42;5.32;;;4.93;;
7903;SDS011;3997;48.416;8.512;2023-07-20T08:17:09;4.30;;;4.00;;
7903;SDS011;3997;48.416;8.512;2023-07-20T08:19:36;5.07;;;4.78;;
7903;SDS011;3997;48.416;8.512;2023-07-20T08:22:06;4.57;;;4.25;;
7903;SDS011;3997;48.416;8.512;2023-07-20T08:24:35;5.13;;;4.80;;
7903;SDS011;3997;48.416;8.512;2023-07-20T08:27:01;4.50;;;4.20;;
7903;SDS011;3997;48.416;8.512;2023-07-20T08:29:28;4.22;;;4.00;;
7903;SDS011;3997;48.416;8.512;2023-07-20T08:31:54;4.47;;;4.07;;
7903;SDS011;3997;48.416;8.512;2023-07-20T08:34:21;4.50;;;4.30;;
7903;SDS011;3997;48.416;8.512;2023-07-20T08:36:47;4.45;;;4.25;;
7903;SDS011;3997;48.416;8.512;2023-07-20T08:39:14;4.57;;;4.18;;
7903;SDS011;3997;48.416;8.512;2023-07-20T08:41:42;4.60;;;4.40;;
7903;SDS011;3997;48.416;8.512;2023-07-20T08:44:09;4.68;;;4.38;;
7903;SDS011;3997;48.416;8.512;2023-07-20T08:46:36;5.20;;;5.00;;
7903;SDS011;3997;48.416;8.512;2023-07-20T08:49:04;5.00;;;4.70;;
7903;SDS011;3997;48.416;8.512;2023-07-20T08:51:30;5.10;;;4.70;;
7903;SDS011;3997;48.416;8.512;2023-07-20T08:53:58;5.28;;;4.80;;
7903;SDS011;3997;48.416;8.512;2023-07-20T08:56:24;4.78;;;4.47;;
7903;SDS011;3997;48.416;8.512;2023-07-20T08:58:53;5.65;;;4.35;;
7903;SDS011;3997;48.416;8.512;2023-07-20T09:01:19;4.63;;;4.30;;
7903;SDS011;3997;48.416;8.512;2023-07-20T09:03:46;4.40;;;4.20;;
7903;SDS011;3997;48.416;8.512;2023-07-20T09:06:13;4.45;;;4.00;;
7903;SDS011;3997;48.416;8.512;2023-07-20T09:08:39;4.30;;;4.10;;
7903;SDS011;3997;48.416;8.512;2023-07-20T09:11:06;4.30;;;4.00;;
7903;SDS011;3997;48.416;8.512;2023-07-20T09:13:32;5.03;;;4.63;;
7903;SDS011;3997;48.416;8.512;2023-07-20T09:16:01;4.63;;;4.32;;
7903;SDS011;3997;48.416;8.512;2023-07-20T09:18:29;5.03;;;4.72;;
7903;SDS011;3997;48.416;8.512;2023-07-20T09:20:57;4.60;;;4.30;;
7903;SDS011;3997;48.416;8.512;2023-07-20T09:23:29;4.50;;;4.22;;
7903;SDS011;3997;48.416;8.512;2023-07-20T09:25:57;5.93;;;4.20;;
7903;SDS011;3997;48.416;8.512;2023-07-20T09:28:23;4.63;;;4.20;;
7903;SDS011;3997;48.416;8.512;2023-07-20T09:30:50;4.18;;;3.97;;
7903;SDS011;3997;48.416;8.512;2023-07-20T09:33:22;4.55;;;4.20;;
7903;SDS011;3997;48.416;8.512;2023-07-20T09:35:48;4.88;;;4.32;;
7903;SDS011;3997;48.416;8.512;2023-07-20T09:38:15;4.13;;;3.88;;
7903;SDS011;3997;48.416;8.512;2023-07-20T09:40:42;4.57;;;4.22;;
7903;SDS011;3997;48.416;8.512;2023-07-20T09:43:09;4.18;;;3.97;;
7903;SDS011;3997;48.416;8.512;2023-07-20T09:45:38;4.40;;;4.10;;
7903;SDS011;3997;48.416;8.512;2023-07-20T09:48:06;4.38;;;4.15;;
7903;SDS011;3997;48.416;8.512;2023-07-20T09:50:34;4.53;;;4.10;;
7903;SDS011;3997;48.416;8.512;2023-07-20T09:53:05;4.60;;;4.18;;
7903;SDS011;3997;48.416;8.512;2023-07-20T09:55:32;4.00;;;3.80;;
7903;SDS011;3997;48.416;8.512;2023-07-20T09:57:59;4.50;;;4.20;;
7903;SDS011;3997;48.416;8.512;2023-07-20T10:00:26;4.57;;;4.28;;
7903;SDS011;3997;48.416;8.512;2023-07-20T10:02:52;5.10;;;4.50;;
7903;SDS011;3997;48.416;8.512;2023-07-20T10:05:20;4.20;;;4.00;;
7903;SDS011;3997;48.416;8.512;2023-07-20T10:07:49;4.78;;;4.38;;
7903;SDS011;3997;48.416;8.512;2023-07-20T10:10:16;4.22;;;4.03;;
7903;SDS011;3997;48.416;8.512;2023-07-20T10:12:44;4.63;;;4.22;;
7903;SDS011;3997;48.416;8.512;2023-07-20T10:15:11;4.32;;;4.13;;
7903;SDS011;3997;48.416;8.512;2023-07-20T10:17:39;4.38;;;4.18;;
7903;SDS011;3997;48.416;8.512;2023-07-20T10:20:07;4.45;;;4.05;;
7903;SDS011;3997;48.416;8.512;2023-07-20T10:22:34;3.75;;;3.60;;
7903;SDS011;3997;48.416;8.512;2023-07-20T10:25:03;4.00;;;3.80;;
7903;SDS011;3997;48.416;8.512;2023-07-20T10:27:30;4.20;;;4.00;;
7903;SDS011;3997;48.416;8.512;2023-07-20T10:29:57;4.18;;;3.92;;
7903;SDS011;3997;48.416;8.512;2023-07-20T10:32:26;3.92;;;3.72;;
7903;SDS011;3997;48.416;8.512;2023-07-20T10:34:55;4.43;;;4.18;;
7903;SDS011;3997;48.416;8.512;2023-07-20T10:42:57;4.47;;;4.25;;
7903;SDS011;3997;48.416;8.512;2023-07-20T10:45:32;4.25;;;4.00;;
7903;SDS011;3997;48.416;8.512;2023-07-20T10:47:59;4.25;;;4.03;;
7903;SDS011;3997;48.416;8.512;2023-07-20T10:50:28;4.50;;;4.20;;
7903;SDS011;3997;48.416;8.512;2023-07-20T10:53:03;4.45;;;4.15;;
7903;SDS011;3997;48.416;8.512;2023-07-20T10:55:31;4.05;;;3.85;;
7903;SDS011;3997;48.416;8.512;2023-07-20T10:58:08;4.18;;;4.00;;
7903;SDS011;3997;48.416;8.512;2023-07-20T11:00:36;4.00;;;3.80;;
7903;SDS011;3997;48.416;8.512;2023-07-20T11:03:02;4.30;;;4.10;;
7903;SDS011;3997;48.416;8.512;2023-07-20T11:05:35;4.15;;;3.97;;
7903;SDS011;3997;48.416;8.512;2023-07-20T11:08:03;4.25;;;4.05;;
7903;SDS011;3997;48.416;8.512;2023-07-20T11:10:30;4.28;;;4.03;;
7903;SDS011;3997;48.416;8.512;2023-07-20T11:13:16;4.15;;;3.95;;
7903;SDS011;3997;48.416;8.512;2023-07-20T11:15:47;4.50;;;4.30;;
7903;SDS011;3997;48.416;8.512;2023-07-20T11:18:13;4.10;;;3.90;;
7903;SDS011;3997;48.416;8.512;2023-07-20T11:20:40;4.10;;;3.90;;
7903;SDS011;3997;48.416;8.512;2023-07-20T11:23:07;4.35;;;4.15;;
7903;SDS011;3997;48.416;8.512;2023-07-20T11:25:38;4.20;;;4.00;;
7903;SDS011;3997;48.416;8.512;2023-07-20T11:28:06;4.32;;;4.10;;
7903;SDS011;3997;48.416;8.512;2023-07-20T11:30:35;3.83;;;3.63;;
7903;SDS011;3997;48.416;8.512;2023-07-20T11:33:01;4.30;;;4.10;;
7903;SDS011;3997;48.416;8.512;2023-07-20T11:35:28;4.40;;;4.20;;
7903;SDS011;3997;48.416;8.512;2023-07-20T11:37:54;3.70;;;3.60;;
7903;SDS011;3997;48.416;8.512;2023-07-20T11:40:21;3.80;;;3.70;;
7903;SDS011;3997;48.416;8.512;2023-07-20T11:42:48;4.13;;;3.88;;
7903;SDS011;3997;48.416;8.512;2023-07-20T11:45:15;4.15;;;3.95;;
7903;SDS011;3997;48.416;8.512;2023-07-20T11:47:44;4.00;;;3.80;;
7903;SDS011;3997;48.416;8.512;2023-07-20T11:50:10;4.38;;;4.15;;
7903;SDS011;3997;48.416;8.512;2023-07-20T11:52:39;4.20;;;4.00;;
7903;SDS011;3997;48.416;8.512;2023-07-20T11:55:06;4.60;;;4.30;;
7903;SDS011;3997;48.416;8.512;2023-07-20T11:57:33;4.45;;;4.25;;
7903;SDS011;3997;48.416;8.512;2023-07-20T12:00:00;4.00;;;3.80;;
7903;SDS011;3997;48.416;8.512;2023-07-20T12:02:29;4.60;;;4.40;;
7903;SDS011;3997;48.416;8.512;2023-07-20T12:04:57;4.03;;;3.83;;
7903;SDS011;3997;48.416;8.512;2023-07-20T12:07:25;4.20;;;4.00;;
7903;SDS011;3997;48.416;8.512;2023-07-20T12:10:02;3.78;;;3.67;;
7903;SDS011;3997;48.416;8.512;2023-07-20T12:12:31;4.10;;;3.90;;
7903;SDS011;3997;48.416;8.512;2023-07-20T12:15:11;3.90;;;3.70;;
7903;SDS011;3997;48.416;8.512;2023-07-20T12:17:41;4.00;;;3.80;;
7903;SDS011;3997;48.416;8.512;2023-07-20T12:20:09;4.05;;;3.75;;
7903;SDS011;3997;48.416;8.512;2023-07-20T12:22:38;3.60;;;3.50;;
7903;SDS011;3997;48.416;8.512;2023-07-20T12:25:05;4.28;;;3.90;;
7903;SDS011;3997;48.416;8.512;2023-07-20T12:27:31;3.83;;;3.63;;
7903;SDS011;3997;48.416;8.512;2023-07-20T12:29:58;3.95;;;3.75;;
7903;SDS011;3997;48.416;8.512;2023-07-20T12:32:24;3.45;;;3.25;;
7903;SDS011;3997;48.416;8.512;2023-07-20T12:34:51;4.13;;;3.80;;
7903;SDS011;3997;48.416;8.512;2023-07-20T12:37:19;3.63;;;3.53;;
7903;SDS011;3997;48.416;8.512;2023-07-20T12:39:45;3.63;;;3.47;;
7903;SDS011;3997;48.416;8.512;2023-07-20T12:42:12;3.95;;;3.75;;
7903;SDS011;3997;48.416;8.512;2023-07-20T12:44:40;3.90;;;3.70;;
7903;SDS011;3997;48.416;8.512;2023-07-20T12:47:06;4.15;;;3.95;;
7903;SDS011;3997;48.416;8.512;2023-07-20T12:49:33;3.60;;;3.47;;
7903;SDS011;3997;48.416;8.512;2023-07-20T12:51:59;4.05;;;3.75;;
7903;SDS011;3997;48.416;8.512;2023-07-20T12:54:27;3.63;;;3.42;;
7903;SDS011;3997;48.416;8.512;2023-07-20T12:56:54;4.03;;;3.83;;
7903;SDS011;3997;48.416;8.512;2023-07-20T12:59:20;4.10;;;3.90;;
7903;SDS011;3997;48.416;8.512;2023-07-20T13:01:46;3.88;;;3.70;;
7903;SDS011;3997;48.416;8.512;2023-07-20T13:04:13;3.83;;;3.70;;
7903;SDS011;3997;48.416;8.512;2023-07-20T13:06:40;3.90;;;3.70;;
7903;SDS011;3997;48.416;8.512;2023-07-20T13:09:06;4.32;;;4.03;;
7903;SDS011;3997;48.416;8.512;2023-07-20T13:11:34;3.83;;;3.63;;
7903;SDS011;3997;48.416;8.512;2023-07-20T13:14:01;4.28;;;3.97;;
7903;SDS011;3997;48.416;8.512;2023-07-20T13:16:27;3.90;;;3.60;;
7903;SDS011;3997;48.416;8.512;2023-07-20T13:18:54;3.75;;;3.65;;
7903;SDS011;3997;48.416;8.512;2023-07-20T13:21:20;4.32;;;4.00;;
7903;SDS011;3997;48.416;8.512;2023-07-20T13:23:47;4.43;;;4.15;;
7903;SDS011;3997;48.416;8.512;2023-07-20T13:26:14;4.05;;;3.78;;
7903;SDS011;3997;48.416;8.512;2023-07-20T13:28:42;4.32;;;4.03;;
7903;SDS011;3997;48.416;8.512;2023-07-20T13:31:08;4.10;;;3.85;;
7903;SDS011;3997;48.416;8.512;2023-07-20T13:33:36;4.28;;;3.90;;
7903;SDS011;3997;48.416;8.512;2023-07-20T13:36:02;4.15;;;3.85;;
7903;SDS011;3997;48.416;8.512;2023-07-20T13:38:30;3.72;;;3.53;;
7903;SDS011;3997;48.416;8.512;2023-07-20T13:40:57;3.45;;;3.35;;
7903;SDS011;3997;48.416;8.512;2023-07-20T13:43:23;3.60;;;3.50;;
7903;SDS011;3997;48.416;8.512;2023-07-20T13:45:51;3.72;;;3.50;;
7903;SDS011;3997;48.416;8.512;2023-07-20T13:48:18;3.80;;;3.60;;
7903;SDS011;3997;48.416;8.512;2023-07-20T13:50:48;3.85;;;3.60;;
7903;SDS011;3997;48.416;8.512;2023-07-20T13:53:14;3.78;;;3.67;;
7903;SDS011;3997;48.416;8.512;2023-07-20T13:55:41;3.72;;;3.60;;
7903;SDS011;3997;48.416;8.512;2023-07-20T13:58:08;3.60;;;3.30;;
7903;SDS011;3997;48.416;8.512;2023-07-20T14:00:35;3.78;;;3.58;;
7903;SDS011;3997;48.416;8.512;2023-07-20T14:03:03;4.00;;;3.70;;
7903;SDS011;3997;48.416;8.512;2023-07-20T14:05:29;4.07;;;3.85;;
7903;SDS011;3997;48.416;8.512;2023-07-20T14:07:56;3.70;;;3.60;;
7903;SDS011;3997;48.416;8.512;2023-07-20T14:10:22;4.05;;;3.85;;
7903;SDS011;3997;48.416;8.512;2023-07-20T14:12:49;4.07;;;3.83;;
7903;SDS011;3997;48.416;8.512;2023-07-20T14:15:16;4.57;;;3.97;;
7903;SDS011;3997;48.416;8.512;2023-07-20T14:17:43;4.15;;;3.85;;
7903;SDS011;3997;48.416;8.512;2023-07-20T14:20:12;4.00;;;3.80;;
7903;SDS011;3997;48.416;8.512;2023-07-20T14:22:38;3.90;;;3.60;;
7903;SDS011;3997;48.416;8.512;2023-07-20T14:25:07;4.13;;;3.92;;
7903;SDS011;3997;48.416;8.512;2023-07-20T14:27:33;3.80;;;3.60;;
7903;SDS011;3997;48.416;8.512;2023-07-20T14:30:00;4.00;;;3.80;;
7903;SDS011;3997;48.416;8.512;2023-07-20T14:32:26;4.15;;;3.85;;
7903;SDS011;3997;48.416;8.512;2023-07-20T14:34:53;3.88;;;3.67;;
7903;SDS011;3997;48.416;8.512;2023-07-20T14:37:20;3.92;;;3.65;;
7903;SDS011;3997;48.416;8.512;2023-07-20T14:39:47;3.58;;;3.42;;
7903;SDS011;3997;48.416;8.512;2023-07-20T14:42:14;3.60;;;3.40;;
7903;SDS011;3997;48.416;8.512;2023-07-20T14:44:40;3.42;;;3.22;;
7903;SDS011;3997;48.416;8.512;2023-07-20T14:47:07;3.65;;;3.45;;
7903;SDS011;3997;48.416;8.512;2023-07-20T14:49:33;3.60;;;3.40;;
7903;SDS011;3997;48.416;8.512;2023-07-20T14:52:00;3.58;;;3.38;;
7903;SDS011;3997;48.416;8.512;2023-07-20T14:54:28;3.38;;;3.17;;
7903;SDS011;3997;48.416;8.512;2023-07-20T14:56:54;3.53;;;3.22;;
7903;SDS011;3997;48.416;8.512;2023-07-20T14:59:21;3.70;;;3.50;;
7903;SDS011;3997;48.416;8.512;2023-07-20T15:01:48;3.40;;;3.30;;
7903;SDS011;3997;48.416;8.512;2023-07-20T15:04:14;3.13;;;3.03;;
7903;SDS011;3997;48.416;8.512;2023-07-20T15:06:41;3.30;;;3.20;;
7903;SDS011;3997;48.416;8.512;2023-07-20T15:09:07;3.67;;;3.55;;
7903;SDS011;3997;48.416;8.512;2023-07-20T15:11:35;3.65;;;3.35;;
7903;SDS011;3997;48.416;8.512;2023-07-20T15:14:02;3.70;;;3.50;;
7903;SDS011;3997;48.416;8.512;2023-07-20T15:16:28;3.67;;;3.30;;
7903;SDS011;3997;48.416;8.512;2023-07-20T15:18:55;3.33;;;3.20;;
7903;SDS011;3997;48.416;8.512;2023-07-20T15:21:21;3.17;;;2.97;;
7903;SDS011;3997;48.416;8.512;2023-07-20T15:23:49;3.30;;;3.20;;